createdAt,value
2023-04-21T16:59:15.294Z,8.10
2023-04-21T17:01:42.553Z,7.88
2023-04-21T17:04:14.016Z,7.07
2023-04-21T17:09:08.837Z,8.82
2023-04-21T17:11:38.079Z,8.77
2023-04-21T17:14:13.618Z,13.85
2023-04-21T17:16:41.196Z,8.98
2023-04-21T17:19:08.371Z,11.52
2023-04-21T17:21:36.004Z,12.70
2023-04-21T17:24:03.260Z,15.65
2023-04-21T17:26:30.511Z,10.32
2023-04-21T17:28:57.752Z,9.18
2023-04-21T17:31:25.140Z,13.90
2023-04-21T17:33:53.454Z,68.28
2023-04-21T17:36:20.671Z,51.17
2023-04-21T17:38:47.862Z,87.50
2023-04-21T17:41:15.966Z,47.03
2023-04-21T17:43:43.036Z,34.28
2023-04-21T17:46:10.316Z,9.07
2023-04-21T17:48:37.889Z,17.65
2023-04-21T17:51:05.157Z,9.18
2023-04-21T17:53:32.796Z,8.20
2023-04-21T17:56:00.112Z,11.60
2023-04-21T17:58:27.313Z,13.32
2023-04-21T18:00:55.058Z,10.73
2023-04-21T18:03:22.518Z,11.68
2023-04-21T18:05:50.401Z,8.95
2023-04-21T18:08:17.668Z,9.45
2023-04-21T18:10:44.851Z,10.40
2023-04-21T18:13:12.416Z,8.80
2023-04-21T18:15:40.430Z,9.80
2023-04-21T18:18:08.108Z,10.98
2023-04-21T18:20:36.710Z,10.32
2023-04-21T18:23:04.003Z,9.88
2023-04-21T18:25:41.923Z,9.50
2023-04-21T18:28:11.290Z,10.55
2023-04-21T18:30:40.277Z,11.38
2023-04-21T18:33:07.650Z,11.60
2023-04-21T18:35:34.986Z,11.05
2023-04-21T18:38:03.170Z,8.98
2023-04-21T18:40:41.072Z,11.05
2023-04-21T18:43:13.118Z,12.60
2023-04-21T18:45:40.877Z,9.23
2023-04-21T18:48:09.490Z,8.95
2023-04-21T18:50:40.333Z,19.63
2023-04-21T18:53:08.744Z,14.32
2023-04-21T18:55:39.942Z,11.55
2023-04-21T18:58:07.300Z,12.13
2023-04-21T19:00:37.738Z,19.58
2023-04-21T19:03:06.535Z,9.48
2023-04-21T19:05:36.991Z,10.43
2023-04-21T19:08:04.283Z,11.10
2023-04-21T19:10:34.692Z,13.00
2023-04-21T19:13:05.284Z,11.25
2023-04-21T19:15:32.680Z,13.20
2023-04-21T19:17:59.968Z,10.25
2023-04-21T19:20:27.309Z,10.38
2023-04-21T19:22:54.404Z,11.23
2023-04-21T19:25:21.719Z,14.70
2023-04-21T19:27:51.856Z,15.10
2023-04-21T19:30:22.112Z,11.48
2023-04-21T19:32:49.269Z,13.32
2023-04-21T19:35:16.715Z,12.90
2023-04-21T19:37:44.325Z,16.27
2023-04-21T19:40:11.759Z,14.57
2023-04-21T19:42:43.043Z,12.60
2023-04-21T19:45:11.193Z,15.90
2023-04-21T19:47:38.556Z,14.27
2023-04-21T19:50:14.887Z,14.25
2023-04-21T19:52:42.062Z,13.02
2023-04-21T19:55:10.156Z,11.88
2023-04-21T19:57:37.480Z,13.93
2023-04-21T20:00:09.095Z,14.15
2023-04-21T20:02:39.498Z,11.05
2023-04-21T20:05:12.978Z,14.07
2023-04-21T20:07:40.132Z,11.53
2023-04-21T20:10:08.311Z,10.52
2023-04-21T20:12:35.994Z,15.50
2023-04-21T20:15:03.682Z,8.65
2023-04-21T20:17:31.804Z,14.20
2023-04-21T20:19:59.312Z,13.52
2023-04-21T20:22:26.466Z,14.23
2023-04-21T20:24:54.204Z,13.15
2023-04-21T20:27:21.419Z,13.68
2023-04-21T20:29:48.589Z,14.88
2023-04-21T20:32:15.816Z,16.75
2023-04-21T20:34:43.317Z,11.52
2023-04-21T20:37:11.038Z,12.30
2023-04-21T20:39:38.805Z,13.07
2023-04-21T20:42:13.175Z,17.05
2023-04-21T20:44:42.837Z,14.55
2023-04-21T20:47:11.711Z,14.15
2023-04-21T20:49:40.005Z,13.35
2023-04-21T20:52:07.576Z,12.65
2023-04-21T20:54:34.996Z,12.77
2023-04-21T20:57:03.981Z,11.65
2023-04-21T20:59:31.191Z,12.13
2023-04-21T21:01:58.369Z,10.85
2023-04-21T21:04:25.657Z,18.75
2023-04-21T21:06:52.926Z,13.23
2023-04-21T21:09:22.009Z,14.90
2023-04-21T21:11:49.204Z,11.82
2023-04-21T21:14:16.345Z,19.52
2023-04-21T21:16:43.599Z,15.20
2023-04-21T21:19:12.759Z,13.75
2023-04-21T21:21:39.924Z,16.08
2023-04-21T21:24:07.258Z,15.73
2023-04-21T21:26:34.512Z,16.33
2023-04-21T21:29:01.860Z,11.80
2023-04-21T21:31:29.677Z,13.00
2023-04-21T21:33:58.303Z,13.48
2023-04-21T21:36:26.179Z,11.07
2023-04-21T21:38:53.377Z,17.73
2023-04-21T21:41:20.467Z,15.35
2023-04-21T21:43:47.607Z,13.77
2023-04-21T21:46:14.975Z,16.52
2023-04-21T21:48:44.591Z,14.65
2023-04-21T21:51:11.813Z,17.00
2023-04-21T21:53:38.942Z,11.68
2023-04-21T21:56:06.709Z,13.27
2023-04-21T21:58:33.996Z,13.90
2023-04-21T22:01:01.134Z,13.85
2023-04-21T22:03:28.563Z,11.82
2023-04-21T22:05:56.055Z,15.73
2023-04-21T22:08:23.280Z,15.98
2023-04-21T22:10:50.457Z,15.95
2023-04-21T22:13:17.613Z,16.73
2023-04-21T22:15:44.939Z,14.80
2023-04-21T22:18:12.105Z,14.35
2023-04-21T22:20:39.277Z,16.30
2023-04-21T22:23:06.687Z,12.90
2023-04-21T22:25:33.824Z,20.70
2023-04-21T22:28:01.043Z,18.08
2023-04-21T22:30:28.260Z,17.77
2023-04-21T22:32:55.428Z,17.75
2023-04-21T22:35:22.621Z,14.13
2023-04-21T22:37:50.008Z,20.60
2023-04-21T22:40:17.255Z,14.40
2023-04-21T22:42:44.439Z,16.23
2023-04-21T22:45:12.004Z,18.10
2023-04-21T22:47:39.249Z,16.90
2023-04-21T22:50:08.341Z,14.23
2023-04-21T22:52:35.583Z,17.25
2023-04-21T22:55:05.286Z,15.80
2023-04-21T22:57:32.800Z,19.90
2023-04-21T22:59:59.933Z,16.17
2023-04-21T23:02:27.572Z,16.85
2023-04-21T23:04:54.828Z,17.83
2023-04-21T23:07:22.155Z,17.27
2023-04-21T23:14:05.934Z,18.85
2023-04-21T23:16:33.358Z,18.25
2023-04-21T23:19:00.912Z,17.33
